sensor_id;sensor_type;location;lat;lon;timestamp;temperature;humidity
62007;DHT22;47963;53.008;6.754;2022-10-18T00:01:40;13.70;99.90
62007;DHT22;47963;53.008;6.754;2022-10-18T00:04:05;13.70;99.90
62007;DHT22;47963;53.008;6.754;2022-10-18T00:06:31;13.70;99.90
62007;DHT22;47963;53.008;6.754;2022-10-18T00:08:57;13.60;99.90
62007;DHT22;47963;53.008;6.754;2022-10-18T00:11:23;13.60;99.90
62007;DHT22;47963;53.008;6.754;2022-10-18T00:13:48;13.70;99.90
62007;DHT22;47963;53.008;6.754;2022-10-18T00:16:15;13.70;99.90
62007;DHT22;47963;53.008;6.754;2022-10-18T00:18:41;13.70;99.90
62007;DHT22;47963;53.008;6.754;2022-10-18T00:21:11;13.70;99.90
62007;DHT22;47963;53.008;6.754;2022-10-18T00:23:37;13.70;99.90
62007;DHT22;47963;53.008;6.754;2022-10-18T00:26:06;13.70;99.90
62007;DHT22;47963;53.008;6.754;2022-10-18T00:28:33;13.70;99.90
62007;DHT22;47963;53.008;6.754;2022-10-18T00:31:15;13.70;99.90
62007;DHT22;47963;53.008;6.754;2022-10-18T00:33:46;13.70;99.90
62007;DHT22;47963;53.008;6.754;2022-10-18T00:36:12;13.70;99.90
62007;DHT22;47963;53.008;6.754;2022-10-18T00:38:39;13.70;99.90
62007;DHT22;47963;53.008;6.754;2022-10-18T00:41:06;13.70;99.90
62007;DHT22;47963;53.008;6.754;2022-10-18T00:43:56;13.70;99.90
62007;DHT22;47963;53.008;6.754;2022-10-18T00:46:23;13.60;99.90
62007;DHT22;47963;53.008;6.754;2022-10-18T00:48:50;13.70;99.90
62007;DHT22;47963;53.008;6.754;2022-10-18T00:51:18;13.60;99.90
62007;DHT22;47963;53.008;6.754;2022-10-18T00:53:44;13.60;99.90
62007;DHT22;47963;53.008;6.754;2022-10-18T00:56:11;13.70;99.90
62007;DHT22;47963;53.008;6.754;2022-10-18T00:58:37;13.60;99.90
62007;DHT22;47963;53.008;6.754;2022-10-18T01:01:03;13.60;99.90
62007;DHT22;47963;53.008;6.754;2022-10-18T01:03:29;13.60;99.90
62007;DHT22;47963;53.008;6.754;2022-10-18T01:05:55;13.60;99.90
62007;DHT22;47963;53.008;6.754;2022-10-18T01:14:21;13.60;99.90
62007;DHT22;47963;53.008;6.754;2022-10-18T01:17:05;13.50;99.90
62007;DHT22;47963;53.008;6.754;2022-10-18T01:22:41;13.50;99.90
62007;DHT22;47963;53.008;6.754;2022-10-18T01:31:12;13.40;99.90
62007;DHT22;47963;53.008;6.754;2022-10-18T01:33:47;13.40;99.90
62007;DHT22;47963;53.008;6.754;2022-10-18T01:36:27;13.50;99.90
62007;DHT22;47963;53.008;6.754;2022-10-18T01:38:57;13.40;99.90
62007;DHT22;47963;53.008;6.754;2022-10-18T01:41:24;13.40;99.90
62007;DHT22;47963;53.008;6.754;2022-10-18T01:43:56;13.40;99.90
62007;DHT22;47963;53.008;6.754;2022-10-18T01:46:24;13.40;99.90
62007;DHT22;47963;53.008;6.754;2022-10-18T01:48:51;13.40;99.90
62007;DHT22;47963;53.008;6.754;2022-10-18T01:51:25;13.40;99.90
62007;DHT22;47963;53.008;6.754;2022-10-18T01:53:51;13.30;99.90
62007;DHT22;47963;53.008;6.754;2022-10-18T01:56:30;13.40;99.90
62007;DHT22;47963;53.008;6.754;2022-10-18T01:59:10;13.40;99.90
62007;DHT22;47963;53.008;6.754;2022-10-18T02:01:56;13.40;99.90
62007;DHT22;47963;53.008;6.754;2022-10-18T02:04:53;13.40;99.90
62007;DHT22;47963;53.008;6.754;2022-10-18T02:07:34;13.40;99.90
62007;DHT22;47963;53.008;6.754;2022-10-18T02:10:07;13.40;99.90
62007;DHT22;47963;53.008;6.754;2022-10-18T02:12:37;13.40;99.90
62007;DHT22;47963;53.008;6.754;2022-10-18T02:15:07;13.30;99.90
62007;DHT22;47963;53.008;6.754;2022-10-18T02:17:34;13.30;99.90
62007;DHT22;47963;53.008;6.754;2022-10-18T02:20:02;13.30;99.90
62007;DHT22;47963;53.008;6.754;2022-10-18T02:22:31;13.30;99.90
62007;DHT22;47963;53.008;6.754;2022-10-18T02:24:59;13.30;99.90
62007;DHT22;47963;53.008;6.754;2022-10-18T02:27:26;13.40;99.90
62007;DHT22;47963;53.008;6.754;2022-10-18T02:29:51;13.40;99.90
62007;DHT22;47963;53.008;6.754;2022-10-18T02:37:37;13.40;99.90
62007;DHT22;47963;53.008;6.754;2022-10-18T02:40:05;13.40;99.90
62007;DHT22;47963;53.008;6.754;2022-10-18T02:42:36;13.30;99.90
62007;DHT22;47963;53.008;6.754;2022-10-18T02:45:03;13.40;99.90
62007;DHT22;47963;53.008;6.754;2022-10-18T02:47:30;13.40;99.90
62007;DHT22;47963;53.008;6.754;2022-10-18T02:49:55;13.40;99.90
62007;DHT22;47963;53.008;6.754;2022-10-18T02:52:21;13.40;99.90
62007;DHT22;47963;53.008;6.754;2022-10-18T02:54:47;13.30;99.90
62007;DHT22;47963;53.008;6.754;2022-10-18T02:57:12;13.30;99.90
62007;DHT22;47963;53.008;6.754;2022-10-18T02:59:38;13.30;99.90
62007;DHT22;47963;53.008;6.754;2022-10-18T03:02:03;13.30;99.90
62007;DHT22;47963;53.008;6.754;2022-10-18T03:04:29;13.30;99.90
62007;DHT22;47963;53.008;6.754;2022-10-18T03:06:55;13.30;99.90
62007;DHT22;47963;53.008;6.754;2022-10-18T03:09:20;13.30;99.90
62007;DHT22;47963;53.008;6.754;2022-10-18T03:11:46;13.30;99.90
62007;DHT22;47963;53.008;6.754;2022-10-18T03:14:12;13.30;99.90
62007;DHT22;47963;53.008;6.754;2022-10-18T03:16:37;13.30;99.90
62007;DHT22;47963;53.008;6.754;2022-10-18T03:19:03;13.30;99.90
62007;DHT22;47963;53.008;6.754;2022-10-18T03:21:29;13.30;99.90
62007;DHT22;47963;53.008;6.754;2022-10-18T03:23:54;13.30;99.90
62007;DHT22;47963;53.008;6.754;2022-10-18T03:26:20;13.30;99.90
62007;DHT22;47963;53.008;6.754;2022-10-18T03:28:48;13.30;99.90
62007;DHT22;47963;53.008;6.754;2022-10-18T03:31:13;13.30;99.90
62007;DHT22;47963;53.008;6.754;2022-10-18T03:33:39;13.20;99.90
62007;DHT22;47963;53.008;6.754;2022-10-18T03:36:05;13.30;99.90
62007;DHT22;47963;53.008;6.754;2022-10-18T03:38:30;13.30;99.90
62007;DHT22;47963;53.008;6.754;2022-10-18T03:40:56;13.30;99.90
62007;DHT22;47963;53.008;6.754;2022-10-18T03:43:22;13.30;99.90
62007;DHT22;47963;53.008;6.754;2022-10-18T03:45:47;13.20;99.90
62007;DHT22;47963;53.008;6.754;2022-10-18T03:48:13;13.20;99.90
62007;DHT22;47963;53.008;6.754;2022-10-18T03:50:39;13.20;99.90
62007;DHT22;47963;53.008;6.754;2022-10-18T03:53:05;13.20;99.90
62007;DHT22;47963;53.008;6.754;2022-10-18T03:55:30;13.20;99.90
62007;DHT22;47963;53.008;6.754;2022-10-18T03:57:56;13.20;99.90
62007;DHT22;47963;53.008;6.754;2022-10-18T04:00:22;13.10;99.90
62007;DHT22;47963;53.008;6.754;2022-10-18T04:02:48;13.10;99.90
62007;DHT22;47963;53.008;6.754;2022-10-18T04:05:13;13.20;99.90
62007;DHT22;47963;53.008;6.754;2022-10-18T04:07:39;13.10;99.90
62007;DHT22;47963;53.008;6.754;2022-10-18T04:10:05;13.10;99.90
62007;DHT22;47963;53.008;6.754;2022-10-18T04:12:31;13.10;99.90
62007;DHT22;47963;53.008;6.754;2022-10-18T04:14:57;13.10;99.90
62007;DHT22;47963;53.008;6.754;2022-10-18T04:17:22;13.10;99.90
62007;DHT22;47963;53.008;6.754;2022-10-18T04:19:48;13.10;99.90
62007;DHT22;47963;53.008;6.754;2022-10-18T04:22:14;13.00;99.90
62007;DHT22;47963;53.008;6.754;2022-10-18T04:24:39;13.10;99.90
62007;DHT22;47963;53.008;6.754;2022-10-18T04:27:06;13.10;99.90
62007;DHT22;47963;53.008;6.754;2022-10-18T04:29:32;13.10;99.90
62007;DHT22;47963;53.008;6.754;2022-10-18T04:31:58;13.00;99.90
62007;DHT22;47963;53.008;6.754;2022-10-18T04:34:23;13.00;99.90
62007;DHT22;47963;53.008;6.754;2022-10-18T04:36:49;13.00;99.90
62007;DHT22;47963;53.008;6.754;2022-10-18T04:39:15;13.00;99.90
62007;DHT22;47963;53.008;6.754;2022-10-18T04:41:40;13.00;99.90
62007;DHT22;47963;53.008;6.754;2022-10-18T04:44:06;13.00;99.90
62007;DHT22;47963;53.008;6.754;2022-10-18T04:46:32;13.00;99.90
62007;DHT22;47963;53.008;6.754;2022-10-18T04:48:58;12.90;99.90
62007;DHT22;47963;53.008;6.754;2022-10-18T04:51:26;12.90;99.90
62007;DHT22;47963;53.008;6.754;2022-10-18T04:53:52;12.90;99.90
62007;DHT22;47963;53.008;6.754;2022-10-18T04:56:17;12.90;99.90
62007;DHT22;47963;53.008;6.754;2022-10-18T04:58:43;12.90;99.90
62007;DHT22;47963;53.008;6.754;2022-10-18T05:01:09;12.90;99.90
62007;DHT22;47963;53.008;6.754;2022-10-18T05:03:35;12.80;99.90
62007;DHT22;47963;53.008;6.754;2022-10-18T05:06:01;12.80;99.90
62007;DHT22;47963;53.008;6.754;2022-10-18T05:08:26;12.80;99.90
62007;DHT22;47963;53.008;6.754;2022-10-18T05:10:52;12.90;99.90
62007;DHT22;47963;53.008;6.754;2022-10-18T05:13:18;12.90;99.90
62007;DHT22;47963;53.008;6.754;2022-10-18T05:15:45;12.80;99.90
62007;DHT22;47963;53.008;6.754;2022-10-18T05:18:11;12.80;99.90
62007;DHT22;47963;53.008;6.754;2022-10-18T05:20:37;12.70;99.90
62007;DHT22;47963;53.008;6.754;2022-10-18T05:23:03;12.70;99.90
62007;DHT22;47963;53.008;6.754;2022-10-18T05:25:28;12.70;99.90
62007;DHT22;47963;53.008;6.754;2022-10-18T05:27:54;12.70;99.90
62007;DHT22;47963;53.008;6.754;2022-10-18T05:30:20;12.70;99.90
62007;DHT22;47963;53.008;6.754;2022-10-18T05:32:47;12.60;99.90
62007;DHT22;47963;53.008;6.754;2022-10-18T05:35:13;12.60;99.90
62007;DHT22;47963;53.008;6.754;2022-10-18T05:37:38;12.50;99.90
62007;DHT22;47963;53.008;6.754;2022-10-18T05:40:05;12.50;99.90
62007;DHT22;47963;53.008;6.754;2022-10-18T05:42:30;12.40;99.90
62007;DHT22;47963;53.008;6.754;2022-10-18T05:44:56;12.50;99.90
62007;DHT22;47963;53.008;6.754;2022-10-18T05:47:21;12.50;99.90
62007;DHT22;47963;53.008;6.754;2022-10-18T05:49:47;12.40;99.90
62007;DHT22;47963;53.008;6.754;2022-10-18T05:52:13;12.40;99.90
62007;DHT22;47963;53.008;6.754;2022-10-18T05:54:39;12.30;99.90
62007;DHT22;47963;53.008;6.754;2022-10-18T05:57:04;12.30;99.90
62007;DHT22;47963;53.008;6.754;2022-10-18T05:59:30;12.20;99.90
62007;DHT22;47963;53.008;6.754;2022-10-18T06:01:56;12.30;99.90
62007;DHT22;47963;53.008;6.754;2022-10-18T06:04:21;12.30;99.90
62007;DHT22;47963;53.008;6.754;2022-10-18T06:06:47;12.30;99.90
62007;DHT22;47963;53.008;6.754;2022-10-18T06:09:12;12.30;99.90
62007;DHT22;47963;53.008;6.754;2022-10-18T06:11:38;12.30;99.90
62007;DHT22;47963;53.008;6.754;2022-10-18T06:14:04;12.20;99.90
62007;DHT22;47963;53.008;6.754;2022-10-18T06:16:32;12.20;99.90
62007;DHT22;47963;53.008;6.754;2022-10-18T06:18:57;12.10;99.90
62007;DHT22;47963;53.008;6.754;2022-10-18T06:21:25;12.10;99.90
62007;DHT22;47963;53.008;6.754;2022-10-18T06:23:53;12.20;99.90
62007;DHT22;47963;53.008;6.754;2022-10-18T06:26:19;12.20;99.90
62007;DHT22;47963;53.008;6.754;2022-10-18T06:28:45;12.10;99.90
62007;DHT22;47963;53.008;6.754;2022-10-18T06:31:12;12.10;99.90
62007;DHT22;47963;53.008;6.754;2022-10-18T06:33:38;12.00;99.90
62007;DHT22;47963;53.008;6.754;2022-10-18T06:36:06;12.00;99.90
62007;DHT22;47963;53.008;6.754;2022-10-18T06:38:33;11.90;99.90
62007;DHT22;47963;53.008;6.754;2022-10-18T06:40:59;11.90;99.90
62007;DHT22;47963;53.008;6.754;2022-10-18T06:43:25;11.90;99.90
62007;DHT22;47963;53.008;6.754;2022-10-18T06:45:51;11.90;99.90
62007;DHT22;47963;53.008;6.754;2022-10-18T06:48:18;11.80;99.90
62007;DHT22;47963;53.008;6.754;2022-10-18T06:50:54;11.80;99.90
62007;DHT22;47963;53.008;6.754;2022-10-18T06:53:22;11.80;99.90
62007;DHT22;47963;53.008;6.754;2022-10-18T06:55:48;11.80;99.90
62007;DHT22;47963;53.008;6.754;2022-10-18T06:58:13;11.80;99.90
62007;DHT22;47963;53.008;6.754;2022-10-18T07:00:39;11.80;99.90
62007;DHT22;47963;53.008;6.754;2022-10-18T07:03:05;11.80;99.90
62007;DHT22;47963;53.008;6.754;2022-10-18T07:05:31;11.80;99.90
62007;DHT22;47963;53.008;6.754;2022-10-18T07:07:56;11.80;99.90
62007;DHT22;47963;53.008;6.754;2022-10-18T07:10:23;11.80;99.90
62007;DHT22;47963;53.008;6.754;2022-10-18T07:12:48;11.80;99.90
62007;DHT22;47963;53.008;6.754;2022-10-18T07:15:14;11.80;99.90
62007;DHT22;47963;53.008;6.754;2022-10-18T07:17:42;11.70;99.90
62007;DHT22;47963;53.008;6.754;2022-10-18T07:20:10;11.70;99.90
62007;DHT22;47963;53.008;6.754;2022-10-18T07:22:36;11.70;99.90
62007;DHT22;47963;53.008;6.754;2022-10-18T07:25:04;11.70;99.90
62007;DHT22;47963;53.008;6.754;2022-10-18T07:27:30;11.80;99.90
62007;DHT22;47963;53.008;6.754;2022-10-18T07:29:55;11.80;99.90
62007;DHT22;47963;53.008;6.754;2022-10-18T07:32:21;11.80;99.90
62007;DHT22;47963;53.008;6.754;2022-10-18T07:34:46;11.80;99.90
62007;DHT22;47963;53.008;6.754;2022-10-18T07:37:12;11.80;99.90
62007;DHT22;47963;53.008;6.754;2022-10-18T07:39:38;11.70;99.90
62007;DHT22;47963;53.008;6.754;2022-10-18T07:42:03;11.70;99.90
62007;DHT22;47963;53.008;6.754;2022-10-18T07:44:29;11.80;99.90
62007;DHT22;47963;53.008;6.754;2022-10-18T07:46:55;11.70;99.90
62007;DHT22;47963;53.008;6.754;2022-10-18T07:49:20;11.80;99.90
62007;DHT22;47963;53.008;6.754;2022-10-18T07:51:46;11.80;99.90
62007;DHT22;47963;53.008;6.754;2022-10-18T07:54:12;11.70;99.90
62007;DHT22;47963;53.008;6.754;2022-10-18T07:56:37;11.80;99.90
62007;DHT22;47963;53.008;6.754;2022-10-18T07:59:03;11.70;99.90
62007;DHT22;47963;53.008;6.754;2022-10-18T08:01:28;11.80;99.90
62007;DHT22;47963;53.008;6.754;2022-10-18T08:03:54;11.90;99.90
62007;DHT22;47963;53.008;6.754;2022-10-18T08:06:21;11.80;99.90
62007;DHT22;47963;53.008;6.754;2022-10-18T08:08:47;11.90;99.90
62007;DHT22;47963;53.008;6.754;2022-10-18T08:11:22;11.90;99.90
62007;DHT22;47963;53.008;6.754;2022-10-18T08:13:47;12.00;99.90
62007;DHT22;47963;53.008;6.754;2022-10-18T08:16:25;12.00;99.90
62007;DHT22;47963;53.008;6.754;2022-10-18T08:18:52;12.00;99.90
62007;DHT22;47963;53.008;6.754;2022-10-18T08:21:19;12.10;99.90
62007;DHT22;47963;53.008;6.754;2022-10-18T08:23:46;12.10;99.90
62007;DHT22;47963;53.008;6.754;2022-10-18T08:26:17;12.20;99.90
62007;DHT22;47963;53.008;6.754;2022-10-18T08:28:43;12.30;99.90
62007;DHT22;47963;53.008;6.754;2022-10-18T08:31:11;12.40;99.90
62007;DHT22;47963;53.008;6.754;2022-10-18T08:33:38;12.40;99.90
62007;DHT22;47963;53.008;6.754;2022-10-18T08:36:06;12.40;99.90
62007;DHT22;47963;53.008;6.754;2022-10-18T08:38:33;12.40;99.90
62007;DHT22;47963;53.008;6.754;2022-10-18T08:55:02;12.70;99.90
62007;DHT22;47963;53.008;6.754;2022-10-18T08:57:29;12.80;99.90
62007;DHT22;47963;53.008;6.754;2022-10-18T08:59:55;12.80;99.90
62007;DHT22;47963;53.008;6.754;2022-10-18T09:02:43;12.80;99.90
62007;DHT22;47963;53.008;6.754;2022-10-18T09:05:25;12.90;99.90
62007;DHT22;47963;53.008;6.754;2022-10-18T09:08:00;12.90;99.90
62007;DHT22;47963;53.008;6.754;2022-10-18T09:16:20;13.10;99.90
62007;DHT22;47963;53.008;6.754;2022-10-18T09:18:57;13.20;99.90
62007;DHT22;47963;53.008;6.754;2022-10-18T09:24:14;13.30;99.90
62007;DHT22;47963;53.008;6.754;2022-10-18T09:26:45;13.40;99.90
62007;DHT22;47963;53.008;6.754;2022-10-18T09:29:44;13.40;99.90
62007;DHT22;47963;53.008;6.754;2022-10-18T09:35:27;13.50;99.90
62007;DHT22;47963;53.008;6.754;2022-10-18T09:38:01;13.70;99.90
62007;DHT22;47963;53.008;6.754;2022-10-18T09:40:29;13.60;99.90
62007;DHT22;47963;53.008;6.754;2022-10-18T09:43:02;13.70;99.90
62007;DHT22;47963;53.008;6.754;2022-10-18T09:45:40;13.70;99.90
62007;DHT22;47963;53.008;6.754;2022-10-18T09:50:56;13.90;99.90
62007;DHT22;47963;53.008;6.754;2022-10-18T09:58:56;14.10;99.90
62007;DHT22;47963;53.008;6.754;2022-10-18T10:01:24;14.20;99.90
62007;DHT22;47963;53.008;6.754;2022-10-18T10:03:50;14.20;99.90
62007;DHT22;47963;53.008;6.754;2022-10-18T10:06:25;14.20;99.90
62007;DHT22;47963;53.008;6.754;2022-10-18T10:11:36;14.40;99.90
62007;DHT22;47963;53.008;6.754;2022-10-18T10:14:15;14.60;99.90
62007;DHT22;47963;53.008;6.754;2022-10-18T10:19:17;14.70;99.90
62007;DHT22;47963;53.008;6.754;2022-10-18T10:21:43;14.60;99.90
62007;DHT22;47963;53.008;6.754;2022-10-18T10:27:05;14.60;99.90
62007;DHT22;47963;53.008;6.754;2022-10-18T10:29:49;14.80;99.90
62007;DHT22;47963;53.008;6.754;2022-10-18T10:32:18;14.80;99.90
62007;DHT22;47963;53.008;6.754;2022-10-18T10:34:44;14.70;99.90
62007;DHT22;47963;53.008;6.754;2022-10-18T10:37:24;14.80;99.90
62007;DHT22;47963;53.008;6.754;2022-10-18T10:40:13;14.80;99.90
62007;DHT22;47963;53.008;6.754;2022-10-18T10:45:29;15.20;99.90
62007;DHT22;47963;53.008;6.754;2022-10-18T10:48:03;15.40;99.90
62007;DHT22;47963;53.008;6.754;2022-10-18T10:50:29;15.20;99.90
62007;DHT22;47963;53.008;6.754;2022-10-18T10:52:56;15.30;99.90
62007;DHT22;47963;53.008;6.754;2022-10-18T10:55:25;15.30;99.90
62007;DHT22;47963;53.008;6.754;2022-10-18T10:57:54;15.30;99.90
62007;DHT22;47963;53.008;6.754;2022-10-18T11:03:04;15.40;99.90
62007;DHT22;47963;53.008;6.754;2022-10-18T11:05:41;15.50;99.90
62007;DHT22;47963;53.008;6.754;2022-10-18T11:08:08;15.60;99.90
62007;DHT22;47963;53.008;6.754;2022-10-18T11:10:53;15.80;99.90
62007;DHT22;47963;53.008;6.754;2022-10-18T11:15:56;15.90;99.90
62007;DHT22;47963;53.008;6.754;2022-10-18T11:18:31;16.00;99.90
62007;DHT22;47963;53.008;6.754;2022-10-18T11:21:10;15.90;99.90
62007;DHT22;47963;53.008;6.754;2022-10-18T11:23:40;15.90;99.90
62007;DHT22;47963;53.008;6.754;2022-10-18T11:34:25;16.00;99.90
62007;DHT22;47963;53.008;6.754;2022-10-18T11:51:50;15.50;99.90
62007;DHT22;47963;53.008;6.754;2022-10-18T11:54:37;15.50;99.90
62007;DHT22;47963;53.008;6.754;2022-10-18T12:05:57;15.30;99.90
62007;DHT22;47963;53.008;6.754;2022-10-18T12:08:36;15.20;99.90
62007;DHT22;47963;53.008;6.754;2022-10-18T12:11:10;15.30;99.90
62007;DHT22;47963;53.008;6.754;2022-10-18T12:13:52;15.60;99.90
62007;DHT22;47963;53.008;6.754;2022-10-18T12:16:23;15.80;99.90
62007;DHT22;47963;53.008;6.754;2022-10-18T12:18:54;16.10;99.90
62007;DHT22;47963;53.008;6.754;2022-10-18T12:21:22;16.30;99.90
62007;DHT22;47963;53.008;6.754;2022-10-18T12:23:58;16.40;99.90
62007;DHT22;47963;53.008;6.754;2022-10-18T12:26:27;16.50;99.90
62007;DHT22;47963;53.008;6.754;2022-10-18T12:29:20;16.60;99.90
62007;DHT22;47963;53.008;6.754;2022-10-18T12:31:59;16.50;99.90
62007;DHT22;47963;53.008;6.754;2022-10-18T12:34:32;16.20;99.90
62007;DHT22;47963;53.008;6.754;2022-10-18T12:37:25;16.00;99.90
62007;DHT22;47963;53.008;6.754;2022-10-18T12:40:00;15.80;99.90
62007;DHT22;47963;53.008;6.754;2022-10-18T12:42:29;15.70;99.90
62007;DHT22;47963;53.008;6.754;2022-10-18T12:45:27;15.50;99.90
62007;DHT22;47963;53.008;6.754;2022-10-18T12:47:59;15.40;99.90
62007;DHT22;47963;53.008;6.754;2022-10-18T12:50:33;15.40;99.90
62007;DHT22;47963;53.008;6.754;2022-10-18T12:55:47;15.40;99.90
62007;DHT22;47963;53.008;6.754;2022-10-18T13:08:39;16.00;99.90
62007;DHT22;47963;53.008;6.754;2022-10-18T13:18:57;16.00;99.90
62007;DHT22;47963;53.008;6.754;2022-10-18T13:21:28;16.00;99.90
62007;DHT22;47963;53.008;6.754;2022-10-18T13:26:45;16.10;99.90
62007;DHT22;47963;53.008;6.754;2022-10-18T13:32:50;16.10;99.90
62007;DHT22;47963;53.008;6.754;2022-10-18T13:35:42;16.00;99.90
62007;DHT22;47963;53.008;6.754;2022-10-18T13:41:08;16.10;99.90
62007;DHT22;47963;53.008;6.754;2022-10-18T13:48:48;16.10;99.90
62007;DHT22;47963;53.008;6.754;2022-10-18T13:51:43;16.10;99.90
62007;DHT22;47963;53.008;6.754;2022-10-18T13:59:42;16.10;99.90
62007;DHT22;47963;53.008;6.754;2022-10-18T14:07:30;16.00;99.90
62007;DHT22;47963;53.008;6.754;2022-10-18T14:09:58;16.10;99.90
62007;DHT22;47963;53.008;6.754;2022-10-18T14:12:29;16.20;99.90
62007;DHT22;47963;53.008;6.754;2022-10-18T14:17:43;16.20;99.90
62007;DHT22;47963;53.008;6.754;2022-10-18T14:20:35;16.10;99.90
62007;DHT22;47963;53.008;6.754;2022-10-18T14:23:18;16.20;99.90
62007;DHT22;47963;53.008;6.754;2022-10-18T14:25:44;16.10;99.90
62007;DHT22;47963;53.008;6.754;2022-10-18T14:28:21;16.60;99.90
62007;DHT22;47963;53.008;6.754;2022-10-18T14:31:00;16.50;99.90
62007;DHT22;47963;53.008;6.754;2022-10-18T14:36:08;16.70;99.90
62007;DHT22;47963;53.008;6.754;2022-10-18T14:38:43;16.70;99.90
62007;DHT22;47963;53.008;6.754;2022-10-18T14:41:35;18.00;99.90
62007;DHT22;47963;53.008;6.754;2022-10-18T14:47:12;20.40;99.90
62007;DHT22;47963;53.008;6.754;2022-10-18T14:49:45;21.00;99.90
62007;DHT22;47963;53.008;6.754;2022-10-18T14:52:26;22.20;99.90
62007;DHT22;47963;53.008;6.754;2022-10-18T14:54:54;22.60;99.90
62007;DHT22;47963;53.008;6.754;2022-10-18T14:57:29;22.40;99.90
62007;DHT22;47963;53.008;6.754;2022-10-18T15:00:02;23.10;99.90
62007;DHT22;47963;53.008;6.754;2022-10-18T15:02:30;22.80;99.90
62007;DHT22;47963;53.008;6.754;2022-10-18T15:05:06;23.10;99.90
62007;DHT22;47963;53.008;6.754;2022-10-18T15:07:32;23.20;99.90
62007;DHT22;47963;53.008;6.754;2022-10-18T15:10:00;22.20;99.90
62007;DHT22;47963;53.008;6.754;2022-10-18T15:12:28;20.00;99.90
62007;DHT22;47963;53.008;6.754;2022-10-18T15:14:54;19.10;99.90
62007;DHT22;47963;53.008;6.754;2022-10-18T15:17:26;18.10;99.90
62007;DHT22;47963;53.008;6.754;2022-10-18T15:19:56;17.80;99.90
62007;DHT22;47963;53.008;6.754;2022-10-18T15:22:24;17.20;99.90
62007;DHT22;47963;53.008;6.754;2022-10-18T15:25:16;16.70;99.90
62007;DHT22;47963;53.008;6.754;2022-10-18T15:27:48;16.30;99.90
62007;DHT22;47963;53.008;6.754;2022-10-18T15:30:23;16.20;99.90
62007;DHT22;47963;53.008;6.754;2022-10-18T15:32:52;16.20;99.90
62007;DHT22;47963;53.008;6.754;2022-10-18T15:35:25;16.00;99.90
62007;DHT22;47963;53.008;6.754;2022-10-18T15:37:51;16.00;99.90
62007;DHT22;47963;53.008;6.754;2022-10-18T15:40:24;15.90;99.90
62007;DHT22;47963;53.008;6.754;2022-10-18T15:42:59;15.90;99.90
62007;DHT22;47963;53.008;6.754;2022-10-18T15:53:43;15.60;99.90
62007;DHT22;47963;53.008;6.754;2022-10-18T15:58:45;15.20;99.90
62007;DHT22;47963;53.008;6.754;2022-10-18T16:01:21;15.20;99.90
62007;DHT22;47963;53.008;6.754;2022-10-18T16:03:47;15.10;99.90
62007;DHT22;47963;53.008;6.754;2022-10-18T16:06:15;14.90;99.90
62007;DHT22;47963;53.008;6.754;2022-10-18T16:08:43;14.90;99.90
62007;DHT22;47963;53.008;6.754;2022-10-18T16:11:15;14.90;99.90
62007;DHT22;47963;53.008;6.754;2022-10-18T16:13:42;14.90;99.90
62007;DHT22;47963;53.008;6.754;2022-10-18T16:16:14;14.80;99.90
62007;DHT22;47963;53.008;6.754;2022-10-18T16:18:40;14.70;99.90
62007;DHT22;47963;53.008;6.754;2022-10-18T16:21:16;14.60;99.90
62007;DHT22;47963;53.008;6.754;2022-10-18T16:23:42;14.50;99.90
62007;DHT22;47963;53.008;6.754;2022-10-18T16:26:10;14.50;99.90
62007;DHT22;47963;53.008;6.754;2022-10-18T16:28:36;14.50;99.90
62007;DHT22;47963;53.008;6.754;2022-10-18T16:31:02;14.30;99.90
62007;DHT22;47963;53.008;6.754;2022-10-18T16:33:28;14.30;99.90
62007;DHT22;47963;53.008;6.754;2022-10-18T16:35:55;14.30;99.90
62007;DHT22;47963;53.008;6.754;2022-10-18T16:38:28;14.40;99.90
62007;DHT22;47963;53.008;6.754;2022-10-18T16:40:54;14.20;99.90
62007;DHT22;47963;53.008;6.754;2022-10-18T16:43:21;14.30;99.90
62007;DHT22;47963;53.008;6.754;2022-10-18T16:45:47;14.10;99.90
62007;DHT22;47963;53.008;6.754;2022-10-18T16:48:18;14.20;99.90
62007;DHT22;47963;53.008;6.754;2022-10-18T16:50:45;14.20;99.90
62007;DHT22;47963;53.008;6.754;2022-10-18T16:53:11;14.20;99.90
62007;DHT22;47963;53.008;6.754;2022-10-18T16:55:38;14.20;99.90
62007;DHT22;47963;53.008;6.754;2022-10-18T16:58:05;14.20;99.90
62007;DHT22;47963;53.008;6.754;2022-10-18T17:00:32;14.20;99.90
62007;DHT22;47963;53.008;6.754;2022-10-18T17:02:58;14.10;99.90
62007;DHT22;47963;53.008;6.754;2022-10-18T17:05:23;14.10;99.90
62007;DHT22;47963;53.008;6.754;2022-10-18T17:07:49;14.10;99.90
62007;DHT22;47963;53.008;6.754;2022-10-18T17:10:18;14.10;99.90
62007;DHT22;47963;53.008;6.754;2022-10-18T17:12:44;14.00;99.90
62007;DHT22;47963;53.008;6.754;2022-10-18T17:15:10;14.00;99.90
62007;DHT22;47963;53.008;6.754;2022-10-18T17:17:36;14.00;99.90
62007;DHT22;47963;53.008;6.754;2022-10-18T17:20:04;14.00;99.90
62007;DHT22;47963;53.008;6.754;2022-10-18T17:22:30;13.90;99.90
62007;DHT22;47963;53.008;6.754;2022-10-18T17:24:56;13.90;99.90
62007;DHT22;47963;53.008;6.754;2022-10-18T17:27:22;13.90;99.90
62007;DHT22;47963;53.008;6.754;2022-10-18T17:29:48;13.80;99.90
62007;DHT22;47963;53.008;6.754;2022-10-18T17:32:14;13.70;99.90
62007;DHT22;47963;53.008;6.754;2022-10-18T17:34:42;13.70;99.90
62007;DHT22;47963;53.008;6.754;2022-10-18T17:37:08;13.70;99.90
62007;DHT22;47963;53.008;6.754;2022-10-18T17:39:34;13.70;99.90
62007;DHT22;47963;53.008;6.754;2022-10-18T17:42:00;13.80;99.90
62007;DHT22;47963;53.008;6.754;2022-10-18T17:44:25;13.70;99.90
62007;DHT22;47963;53.008;6.754;2022-10-18T17:46:51;13.70;99.90
62007;DHT22;47963;53.008;6.754;2022-10-18T17:49:17;13.60;99.90
62007;DHT22;47963;53.008;6.754;2022-10-18T17:51:43;13.60;99.90
62007;DHT22;47963;53.008;6.754;2022-10-18T17:54:10;13.60;99.90
62007;DHT22;47963;53.008;6.754;2022-10-18T17:56:38;13.70;99.90
62007;DHT22;47963;53.008;6.754;2022-10-18T17:59:03;13.70;99.90
62007;DHT22;47963;53.008;6.754;2022-10-18T18:01:29;13.80;99.90
62007;DHT22;47963;53.008;6.754;2022-10-18T18:03:59;13.70;99.90
62007;DHT22;47963;53.008;6.754;2022-10-18T18:06:32;13.80;99.90
62007;DHT22;47963;53.008;6.754;2022-10-18T18:09:06;13.70;99.90
62007;DHT22;47963;53.008;6.754;2022-10-18T18:11:34;13.70;99.90
62007;DHT22;47963;53.008;6.754;2022-10-18T18:14:00;13.70;99.90
62007;DHT22;47963;53.008;6.754;2022-10-18T18:16:28;13.60;99.90
62007;DHT22;47963;53.008;6.754;2022-10-18T18:18:56;13.60;99.90
62007;DHT22;47963;53.008;6.754;2022-10-18T18:21:23;13.60;99.90
62007;DHT22;47963;53.008;6.754;2022-10-18T18:23:49;13.70;99.90
62007;DHT22;47963;53.008;6.754;2022-10-18T18:26:15;13.70;99.90
62007;DHT22;47963;53.008;6.754;2022-10-18T18:28:41;13.70;99.90
62007;DHT22;47963;53.008;6.754;2022-10-18T18:31:09;13.70;99.90